Time;durP1;ratioP1;P1;durP2;ratioP2;P2;SDS_P1;SDS_P2;PMS_P1;PMS_P2;Temp;Humidity;BMP_temperature;BMP_pressure;BME280_temperature;BME280_humidity;BME280_pressure;Samples;Min_cycle;Max_cycle;Signal;HPM_P1;HPM_P2
2022/04/29 00:00:53;;;;;;;11.57;10.88;;;;;;;;;;5050075;28;20025;-53
2022/04/29 00:03:21;;;;;;;11.90;11.20;;;;;;;;;;5053916;28;20040;-53
2022/04/29 00:05:47;;;;;;;11.25;10.55;;;;;;;;;;5054580;28;20036;-52
2022/04/29 00:08:14;;;;;;;10.95;10.20;;;;;;;;;;5051765;28;20033;-54
2022/04/29 00:10:40;;;;;;;12.02;11.23;;;;;;;;;;5054369;28;20075;-50
2022/04/29 00:13:07;;;;;;;10.13;9.50;;;;;;;;;;5050058;28;20567;-54
2022/04/29 00:15:33;;;;;;;10.07;9.45;;;;;;;;;;5054706;28;20119;-52
2022/04/29 00:17:58;;;;;;;10.73;10.05;;;;;;;;;;5052884;28;20154;-51
2022/04/29 00:20:24;;;;;;;10.85;10.15;;;;;;;;;;5057714;28;20116;-52
2022/04/29 00:22:50;;;;;;;11.43;10.73;;;;;;;;;;5049875;28;20035;-52
2022/04/29 00:25:16;;;;;;;9.50;8.90;;;;;;;;;;5049704;28;20044;-53
2022/04/29 00:27:41;;;;;;;9.55;8.85;;;;;;;;;;5050493;28;20090;-54
2022/04/29 00:30:09;;;;;;;9.45;8.65;;;;;;;;;;5053420;28;20041;-51
2022/04/29 00:32:36;;;;;;;9.35;8.75;;;;;;;;;;5053767;28;20091;-53
2022/04/29 00:35:02;;;;;;;8.90;8.30;;;;;;;;;;5051910;28;20388;-55
2022/04/29 00:37:27;;;;;;;9.75;9.05;;;;;;;;;;5052838;28;20561;-53
2022/04/29 00:39:53;;;;;;;8.35;7.75;;;;;;;;;;5048989;28;20032;-53
2022/04/29 00:42:22;;;;;;;8.90;8.20;;;;;;;;;;5051376;28;20123;-53
2022/04/29 00:44:48;;;;;;;7.20;6.68;;;;;;;;;;5052254;28;20036;-52
2022/04/29 00:47:16;;;;;;;7.03;6.53;;;;;;;;;;5056216;28;20036;-54
2022/04/29 00:49:42;;;;;;;7.88;7.38;;;;;;;;;;5053479;28;20032;-54
2022/04/29 00:52:12;;;;;;;8.52;7.93;;;;;;;;;;5055966;28;20043;-54
2022/04/29 00:54:40;;;;;;;8.80;8.20;;;;;;;;;;5058689;28;20441;-53
2022/04/29 00:57:10;;;;;;;9.52;8.82;;;;;;;;;;5054368;28;20110;-54
2022/04/29 00:59:52;;;;;;;8.68;8.07;;;;;;;;;;5055110;28;20033;-54
2022/04/29 01:02:17;;;;;;;9.98;9.25;;;;;;;;;;5055976;28;20390;-53
2022/04/29 01:05:05;;;;;;;7.63;7.03;;;;;;;;;;5052225;28;20025;-53
2022/04/29 01:07:31;;;;;;;7.13;6.63;;;;;;;;;;5055967;28;20033;-53
2022/04/29 01:09:56;;;;;;;7.53;7.03;;;;;;;;;;5054619;28;20564;-54
2022/04/29 01:12:24;;;;;;;6.85;6.35;;;;;;;;;;5055206;28;20044;-54
2022/04/29 01:14:49;;;;;;;7.38;6.88;;;;;;;;;;5054645;28;20574;-53
2022/04/29 01:17:15;;;;;;;7.43;6.88;;;;;;;;;;5057869;28;20234;-53
2022/04/29 01:19:40;;;;;;;6.90;6.40;;;;;;;;;;5056654;28;20123;-51
2022/04/29 01:22:07;;;;;;;7.53;7.03;;;;;;;;;;5054712;28;20485;-54
2022/04/29 01:24:32;;;;;;;7.65;7.15;;;;;;;;;;5055796;28;20115;-54
2022/04/29 01:26:58;;;;;;;6.18;5.78;;;;;;;;;;5057080;28;20193;-53
2022/04/29 01:29:24;;;;;;;9.35;8.75;;;;;;;;;;5056539;28;20064;-55
2022/04/29 01:31:52;;;;;;;8.25;7.65;;;;;;;;;;5056863;28;20051;-54
2022/04/29 01:34:17;;;;;;;5.95;5.55;;;;;;;;;;5054336;28;20358;-54
2022/04/29 01:36:42;;;;;;;7.72;7.13;;;;;;;;;;5052703;28;20086;-54
2022/04/29 01:39:08;;;;;;;6.85;6.35;;;;;;;;;;5050062;28;20041;-53
2022/04/29 01:41:34;;;;;;;6.32;5.82;;;;;;;;;;5053258;28;20056;-55
2022/04/29 01:44:00;;;;;;;7.15;6.28;;;;;;;;;;5055063;28;20042;-50
2022/04/29 01:46:25;;;;;;;7.68;7.00;;;;;;;;;;5054395;28;20365;-54
2022/04/29 01:48:50;;;;;;;9.00;8.30;;;;;;;;;;5056344;28;20036;-54
2022/04/29 01:51:16;;;;;;;8.20;7.60;;;;;;;;;;5054712;28;20670;-55
2022/04/29 01:53:41;;;;;;;7.95;7.35;;;;;;;;;;5053251;28;20039;-53
2022/04/29 01:56:07;;;;;;;9.80;9.10;;;;;;;;;;5054138;28;20045;-53
2022/04/29 01:58:32;;;;;;;7.03;6.53;;;;;;;;;;5051526;28;20048;-54
2022/04/29 02:00:58;;;;;;;8.75;7.80;;;;;;;;;;5053615;28;20040;-53
2022/04/29 02:03:23;;;;;;;9.00;8.30;;;;;;;;;;5054276;28;20052;-53
2022/04/29 02:05:49;;;;;;;7.65;7.13;;;;;;;;;;5054489;28;20687;-53
2022/04/29 02:08:14;;;;;;;7.85;7.32;;;;;;;;;;5054831;28;20033;-54
2022/04/29 02:10:39;;;;;;;7.53;7.03;;;;;;;;;;5056275;28;20377;-54
2022/04/29 02:13:05;;;;;;;7.22;6.72;;;;;;;;;;5052355;28;20020;-53
2022/04/29 02:15:30;;;;;;;7.28;6.68;;;;;;;;;;5067153;28;20044;-54
2022/04/29 02:17:56;;;;;;;6.57;6.07;;;;;;;;;;5055641;28;20025;-54
2022/04/29 02:20:21;;;;;;;6.63;6.13;;;;;;;;;;5068490;28;20510;-52
2022/04/29 02:22:47;;;;;;;7.55;6.95;;;;;;;;;;5052736;28;20098;-54
2022/04/29 02:25:12;;;;;;;7.05;6.55;;;;;;;;;;5053329;28;20107;-53
2022/04/29 02:27:39;;;;;;;6.68;6.18;;;;;;;;;;5050111;28;20121;-54
2022/04/29 02:30:05;;;;;;;7.18;6.68;;;;;;;;;;5050692;28;20043;-54
2022/04/29 02:32:32;;;;;;;6.78;6.28;;;;;;;;;;5053166;28;20029;-53
2022/04/29 02:34:58;;;;;;;7.03;6.35;;;;;;;;;;5054305;28;20032;-54
2022/04/29 02:37:24;;;;;;;5.75;5.35;;;;;;;;;;5014218;28;1060549;-51
2022/04/29 02:39:49;;;;;;;5.78;5.30;;;;;;;;;;5052988;28;20112;-53
2022/04/29 02:42:14;;;;;;;6.53;6.03;;;;;;;;;;5055419;28;20036;-52
2022/04/29 02:44:40;;;;;;;6.63;6.13;;;;;;;;;;5052654;28;20044;-52
2022/04/29 02:47:08;;;;;;;5.70;5.30;;;;;;;;;;5055205;28;20021;-54
2022/04/29 02:49:41;;;;;;;5.25;4.85;;;;;;;;;;5062682;28;20106;-52
2022/04/29 02:52:09;;;;;;;6.03;5.45;;;;;;;;;;5052280;28;20071;-51
2022/04/29 02:54:35;;;;;;;6.65;6.15;;;;;;;;;;5053094;28;20069;-54
2022/04/29 02:57:00;;;;;;;7.07;6.47;;;;;;;;;;5054436;28;20028;-53
2022/04/29 02:59:26;;;;;;;5.72;5.25;;;;;;;;;;5053000;28;20037;-53
2022/04/29 03:01:52;;;;;;;5.78;5.28;;;;;;;;;;5054503;28;20035;-53
2022/04/29 03:04:17;;;;;;;7.15;5.55;;;;;;;;;;5053272;28;20052;-54
2022/04/29 03:06:42;;;;;;;7.13;6.43;;;;;;;;;;5049784;28;20124;-54
2022/04/29 03:09:08;;;;;;;5.75;5.32;;;;;;;;;;5068215;28;20039;-53
2022/04/29 03:11:34;;;;;;;6.35;5.75;;;;;;;;;;5053716;28;20036;-52
2022/04/29 03:13:59;;;;;;;5.63;5.13;;;;;;;;;;5055118;28;20677;-52
2022/04/29 03:16:24;;;;;;;6.00;5.45;;;;;;;;;;5058549;28;20044;-51
2022/04/29 03:18:50;;;;;;;5.93;5.43;;;;;;;;;;5054367;28;20032;-50
2022/04/29 03:21:18;;;;;;;6.25;5.75;;;;;;;;;;5055202;28;20025;-54
2022/04/29 03:23:45;;;;;;;6.10;5.60;;;;;;;;;;5055067;28;20032;-53
2022/04/29 03:26:11;;;;;;;5.90;5.40;;;;;;;;;;5055668;28;20553;-53
2022/04/29 03:28:36;;;;;;;5.95;5.45;;;;;;;;;;5054690;28;20032;-52
2022/04/29 03:31:02;;;;;;;6.45;5.95;;;;;;;;;;5055426;28;20040;-53
2022/04/29 03:33:28;;;;;;;5.38;4.97;;;;;;;;;;5053808;28;20491;-50
2022/04/29 03:35:53;;;;;;;6.90;6.35;;;;;;;;;;5039709;28;20074;-54
2022/04/29 03:38:19;;;;;;;5.72;5.30;;;;;;;;;;5056044;28;20496;-53
2022/04/29 03:40:45;;;;;;;6.38;5.85;;;;;;;;;;5057815;28;20096;-53
2022/04/29 03:43:12;;;;;;;6.45;5.95;;;;;;;;;;5051184;28;20639;-54
2022/04/29 03:45:37;;;;;;;10.05;5.82;;;;;;;;;;5054773;28;20033;-53
2022/04/29 03:48:03;;;;;;;7.10;6.40;;;;;;;;;;5053955;28;20029;-52
2022/04/29 03:50:29;;;;;;;6.20;5.70;;;;;;;;;;5055624;28;20098;-54
2022/04/29 03:52:57;;;;;;;7.72;6.18;;;;;;;;;;5057708;28;20144;-54
2022/04/29 03:55:25;;;;;;;5.60;5.05;;;;;;;;;;5054230;28;20447;-53
2022/04/29 03:57:53;;;;;;;5.43;5.00;;;;;;;;;;5054599;28;20028;-53
2022/04/29 04:00:19;;;;;;;5.50;4.75;;;;;;;;;;5053010;28;20036;-52
2022/04/29 04:02:44;;;;;;;5.53;5.05;;;;;;;;;;5056284;28;20032;-51
2022/04/29 04:05:10;;;;;;;6.65;6.05;;;;;;;;;;5051463;28;20352;-53
2022/04/29 04:07:36;;;;;;;5.97;5.47;;;;;;;;;;5054650;28;20047;-54
2022/04/29 04:10:05;;;;;;;5.70;5.10;;;;;;;;;;5053179;28;20039;-52
2022/04/29 04:12:48;;;;;;;8.40;6.05;;;;;;;;;;5055309;28;20106;-53
2022/04/29 04:15:16;;;;;;;5.22;4.72;;;;;;;;;;5049795;28;20564;-53
2022/04/29 04:17:43;;;;;;;5.90;5.40;;;;;;;;;;5052581;28;20492;-54
2022/04/29 04:20:10;;;;;;;5.57;5.05;;;;;;;;;;5051364;28;20037;-54
2022/04/29 04:22:36;;;;;;;11.52;5.28;;;;;;;;;;5058658;28;20416;-53
2022/04/29 04:25:03;;;;;;;5.55;5.05;;;;;;;;;;5054802;28;20025;-50
2022/04/29 04:27:30;;;;;;;5.85;4.95;;;;;;;;;;5053353;28;20094;-50
2022/04/29 04:29:55;;;;;;;6.32;5.75;;;;;;;;;;5052452;28;20033;-51
2022/04/29 04:32:21;;;;;;;6.22;5.63;;;;;;;;;;5052976;28;20032;-51
2022/04/29 04:34:53;;;;;;;6.00;5.50;;;;;;;;;;5051753;28;20028;-51
2022/04/29 04:37:23;;;;;;;6.13;5.53;;;;;;;;;;5051176;28;20358;-51
2022/04/29 04:39:50;;;;;;;5.70;5.20;;;;;;;;;;5050217;28;20731;-53
2022/04/29 04:42:17;;;;;;;5.35;4.85;;;;;;;;;;5048320;28;20037;-50
2022/04/29 04:44:43;;;;;;;5.13;4.63;;;;;;;;;;5050884;28;20040;-51
2022/04/29 04:47:09;;;;;;;12.07;6.15;;;;;;;;;;5051574;28;20033;-52
2022/04/29 04:49:35;;;;;;;9.88;6.18;;;;;;;;;;5050237;28;20061;-53
2022/04/29 04:52:01;;;;;;;5.43;5.00;;;;;;;;;;5049272;28;20071;-50
2022/04/29 04:54:26;;;;;;;7.55;6.70;;;;;;;;;;5052518;28;20403;-54
2022/04/29 04:56:52;;;;;;;6.53;6.03;;;;;;;;;;5048968;28;20124;-51
2022/04/29 04:59:17;;;;;;;6.50;6.00;;;;;;;;;;5047919;28;20100;-52
2022/04/29 05:01:43;;;;;;;10.35;7.43;;;;;;;;;;5051484;28;20064;-54
2022/04/29 05:04:09;;;;;;;6.95;6.35;;;;;;;;;;5051564;28;20033;-51
2022/04/29 05:06:36;;;;;;;8.60;7.90;;;;;;;;;;5052779;28;20038;-54
2022/04/29 05:09:03;;;;;;;6.60;5.93;;;;;;;;;;5050982;28;20033;-53
2022/04/29 05:11:28;;;;;;;9.10;8.32;;;;;;;;;;5051402;28;20060;-50
2022/04/29 05:13:53;;;;;;;6.40;5.90;;;;;;;;;;5052879;28;20484;-55
2022/04/29 05:16:19;;;;;;;7.47;6.88;;;;;;;;;;5051859;28;20698;-52
2022/04/29 05:18:44;;;;;;;6.85;6.35;;;;;;;;;;5051735;28;20029;-54
2022/04/29 05:21:09;;;;;;;23.05;8.32;;;;;;;;;;5053385;28;20063;-54
2022/04/29 05:23:36;;;;;;;8.63;7.78;;;;;;;;;;5059557;28;20148;-54
2022/04/29 05:26:02;;;;;;;7.30;6.70;;;;;;;;;;5052741;28;20060;-52
2022/04/29 05:28:28;;;;;;;7.57;6.93;;;;;;;;;;5052874;28;20028;-53
2022/04/29 05:30:55;;;;;;;8.60;7.25;;;;;;;;;;5052479;28;20332;-53
2022/04/29 05:33:21;;;;;;;5.50;5.10;;;;;;;;;;5074135;28;20052;-53
2022/04/29 05:35:46;;;;;;;6.47;5.88;;;;;;;;;;5054362;28;20045;-49
2022/04/29 05:38:12;;;;;;;6.65;6.15;;;;;;;;;;5060563;28;20033;-53
2022/04/29 05:43:21;;;;;;;6.43;5.82;;;;;;;;;;5054024;28;20041;-54
2022/04/29 05:45:47;;;;;;;5.80;5.30;;;;;;;;;;5052398;28;20568;-52
2022/04/29 05:48:12;;;;;;;6.43;5.90;;;;;;;;;;5051897;28;20044;-52
2022/04/29 05:50:37;;;;;;;6.00;5.50;;;;;;;;;;5056875;28;20036;-53
2022/04/29 05:53:03;;;;;;;6.22;5.72;;;;;;;;;;5053651;28;20021;-53
2022/04/29 05:55:28;;;;;;;10.60;5.88;;;;;;;;;;5053090;28;20032;-53
2022/04/29 05:57:53;;;;;;;6.28;5.78;;;;;;;;;;5052747;28;20469;-50
2022/04/29 06:00:19;;;;;;;13.27;4.70;;;;;;;;;;5055297;28;20048;-54
2022/04/29 06:02:46;;;;;;;5.88;5.38;;;;;;;;;;5052213;28;20056;-50
2022/04/29 06:05:12;;;;;;;6.13;5.63;;;;;;;;;;5051738;28;20770;-50
2022/04/29 06:07:37;;;;;;;7.13;5.57;;;;;;;;;;5052080;28;20064;-49
2022/04/29 06:10:05;;;;;;;6.20;5.60;;;;;;;;;;5058939;28;20032;-52
2022/04/29 06:12:30;;;;;;;13.65;7.05;;;;;;;;;;5048997;28;20397;-53
2022/04/29 06:14:56;;;;;;;5.75;5.25;;;;;;;;;;5052947;28;20028;-54
2022/04/29 06:17:22;;;;;;;6.43;5.88;;;;;;;;;;5052029;28;20149;-53
2022/04/29 06:19:47;;;;;;;5.78;5.28;;;;;;;;;;5052237;28;20025;-54
2022/04/29 06:22:13;;;;;;;6.18;5.68;;;;;;;;;;5052991;28;20028;-49
2022/04/29 06:24:39;;;;;;;7.80;7.10;;;;;;;;;;5053711;28;20032;-53
2022/04/29 06:27:05;;;;;;;8.38;6.70;;;;;;;;;;5049334;28;20114;-55
2022/04/29 06:29:30;;;;;;;7.05;6.45;;;;;;;;;;5055025;28;20028;-54
2022/04/29 06:31:55;;;;;;;6.80;6.20;;;;;;;;;;5053794;28;20067;-53
2022/04/29 06:34:21;;;;;;;6.05;5.55;;;;;;;;;;5054212;28;20086;-53
2022/04/29 06:36:46;;;;;;;9.82;7.40;;;;;;;;;;5056175;28;20036;-52
2022/04/29 06:39:11;;;;;;;6.93;6.32;;;;;;;;;;5057602;28;20033;-54
2022/04/29 06:41:37;;;;;;;12.13;6.50;;;;;;;;;;5053820;28;20936;-53
2022/04/29 06:44:03;;;;;;;7.75;7.03;;;;;;;;;;5050911;28;20490;-53
2022/04/29 06:46:29;;;;;;;5.95;5.45;;;;;;;;;;5054055;28;20127;-53
2022/04/29 06:48:55;;;;;;;6.85;6.25;;;;;;;;;;5053196;28;20132;-53
2022/04/29 06:51:22;;;;;;;6.82;6.22;;;;;;;;;;5057843;28;20037;-54
2022/04/29 06:53:48;;;;;;;6.18;5.68;;;;;;;;;;5056662;28;20021;-52
2022/04/29 06:56:13;;;;;;;6.82;6.30;;;;;;;;;;5051148;28;20967;-49
2022/04/29 06:58:39;;;;;;;6.55;5.95;;;;;;;;;;5053305;28;20470;-53
2022/04/29 07:01:04;;;;;;;6.28;5.78;;;;;;;;;;5052814;28;20090;-52
2022/04/29 07:03:29;;;;;;;6.47;5.95;;;;;;;;;;5050255;28;20522;-50
2022/04/29 07:05:57;;;;;;;6.35;5.75;;;;;;;;;;5053473;28;20603;-51
2022/04/29 07:08:23;;;;;;;6.40;5.90;;;;;;;;;;5051920;28;20446;-52
2022/04/29 07:10:48;;;;;;;6.03;5.53;;;;;;;;;;5052146;28;20094;-54
2022/04/29 07:13:14;;;;;;;7.13;6.43;;;;;;;;;;5054641;28;20470;-52
2022/04/29 07:15:43;;;;;;;6.03;5.53;;;;;;;;;;5053990;28;20024;-54
2022/04/29 07:18:10;;;;;;;5.80;5.38;;;;;;;;;;5057752;28;20033;-54
2022/04/29 07:20:35;;;;;;;6.15;5.68;;;;;;;;;;5051007;28;20040;-54
2022/04/29 07:23:01;;;;;;;7.72;7.10;;;;;;;;;;5056352;28;20037;-54
2022/04/29 07:25:26;;;;;;;6.25;5.78;;;;;;;;;;5053111;28;20028;-54
2022/04/29 07:27:51;;;;;;;6.55;5.95;;;;;;;;;;5050547;28;20481;-51
2022/04/29 07:30:17;;;;;;;6.40;5.85;;;;;;;;;;5051012;28;20090;-52
2022/04/29 07:32:42;;;;;;;6.57;5.97;;;;;;;;;;5055115;28;20036;-53
2022/04/29 07:43:21;;;;;;;7.05;6.53;;;;;;;;;;5053554;28;20059;-54
2022/04/29 07:45:49;;;;;;;6.65;6.13;;;;;;;;;;5050221;28;20044;-54
2022/04/29 07:48:14;;;;;;;8.18;7.57;;;;;;;;;;5050833;28;20494;-50
2022/04/29 07:50:40;;;;;;;10.65;9.90;;;;;;;;;;5053143;28;20036;-54
2022/04/29 07:53:05;;;;;;;11.60;10.60;;;;;;;;;;5049308;28;20029;-53
2022/04/29 07:55:31;;;;;;;10.88;10.02;;;;;;;;;;5052406;28;20033;-53
2022/04/29 07:57:57;;;;;;;12.57;11.77;;;;;;;;;;5050489;28;20035;-54
2022/04/29 08:00:22;;;;;;;7.90;7.40;;;;;;;;;;5051631;28;20064;-53
2022/04/29 08:02:48;;;;;;;13.48;12.68;;;;;;;;;;5053774;28;20032;-52
2022/04/29 08:05:14;;;;;;;19.83;18.67;;;;;;;;;;5051621;28;20148;-51
2022/04/29 08:07:40;;;;;;;18.25;17.15;;;;;;;;;;5060563;28;20033;-50
2022/04/29 08:10:06;;;;;;;22.50;21.20;;;;;;;;;;5053644;28;20569;-52
2022/04/29 08:12:31;;;;;;;22.67;21.48;;;;;;;;;;5068391;28;20047;-54
2022/04/29 08:14:56;;;;;;;23.45;22.15;;;;;;;;;;5052544;28;20032;-53
2022/04/29 08:17:24;;;;;;;27.90;26.30;;;;;;;;;;5053786;28;20033;-51
2022/04/29 08:19:49;;;;;;;28.77;27.23;;;;;;;;;;5061794;28;20054;-52
2022/04/29 08:22:16;;;;;;;29.77;28.08;;;;;;;;;;5045779;28;20040;-53
2022/04/29 08:24:42;;;;;;;24.52;23.13;;;;;;;;;;5053053;28;20397;-52
2022/04/29 08:27:07;;;;;;;10.55;9.85;;;;;;;;;;5054376;28;20999;-52
2022/04/29 08:29:33;;;;;;;33.70;31.95;;;;;;;;;;5051981;28;20127;-52
2022/04/29 08:31:58;;;;;;;14.98;13.98;;;;;;;;;;5053719;28;20043;-52
2022/04/29 08:34:25;;;;;;;19.23;18.08;;;;;;;;;;5051220;28;20036;-53
2022/04/29 08:36:51;;;;;;;15.57;14.68;;;;;;;;;;5054778;28;20098;-52
2022/04/29 08:39:16;;;;;;;25.73;24.27;;;;;;;;;;5051845;28;20067;-52
2022/04/29 08:41:42;;;;;;;16.58;15.57;;;;;;;;;;5069071;28;20114;-55
2022/04/29 08:44:10;;;;;;;16.65;15.65;;;;;;;;;;5050705;28;20051;-50
2022/04/29 08:46:38;;;;;;;18.65;17.60;;;;;;;;;;5051197;28;20029;-52
2022/04/29 08:49:04;;;;;;;32.13;30.42;;;;;;;;;;5053779;28;19920;-53
2022/04/29 08:51:30;;;;;;;29.85;28.17;;;;;;;;;;5055123;28;20037;-53
2022/04/29 08:53:57;;;;;;;26.10;24.60;;;;;;;;;;5052777;28;20074;-50
2022/04/29 08:59:06;;;;;;;27.15;25.67;;;;;;;;;;5054024;28;20046;-53
2022/04/29 09:01:32;;;;;;;19.27;18.17;;;;;;;;;;5048794;28;20028;-52
2022/04/29 09:03:57;;;;;;;26.15;24.73;;;;;;;;;;5058002;28;20823;-51
2022/04/29 09:06:23;;;;;;;25.15;23.80;;;;;;;;;;5048490;28;20183;-50
2022/04/29 09:08:49;;;;;;;29.63;28.08;;;;;;;;;;5050598;28;20047;-53
2022/04/29 09:11:26;;;;;;;24.40;23.02;;;;;;;;;;5053790;28;20032;-50
2022/04/29 09:13:52;;;;;;;25.70;24.35;;;;;;;;;;5052674;28;20108;-53
2022/04/29 09:16:18;;;;;;;28.90;27.23;;;;;;;;;;5057078;28;20033;-53
2022/04/29 09:18:46;;;;;;;28.85;27.25;;;;;;;;;;5051665;28;20028;-51
2022/04/29 09:21:16;;;;;;;27.92;26.42;;;;;;;;;;5056695;28;20123;-53
2022/04/29 09:23:55;;;;;;;26.70;25.20;;;;;;;;;;5056581;28;20033;-53
2022/04/29 09:26:24;;;;;;;26.25;24.80;;;;;;;;;;5051119;28;20561;-54
2022/04/29 09:28:52;;;;;;;21.65;20.35;;;;;;;;;;5056654;28;20033;-49
2022/04/29 09:31:17;;;;;;;21.27;20.08;;;;;;;;;;5054366;28;20028;-50
2022/04/29 09:33:56;;;;;;;16.73;15.73;;;;;;;;;;5059260;28;20041;-52
2022/04/29 09:36:24;;;;;;;21.33;20.13;;;;;;;;;;5054151;28;20031;-52
2022/04/29 09:41:39;;;;;;;19.92;18.83;;;;;;;;;;5052028;28;20036;-50
2022/04/29 09:44:05;;;;;;;14.27;13.38;;;;;;;;;;5050159;28;20033;-50
2022/04/29 09:46:30;;;;;;;14.20;13.30;;;;;;;;;;5052601;28;20033;-53
2022/04/29 09:49:02;;;;;;;16.48;15.38;;;;;;;;;;5053081;28;20373;-51
2022/04/29 09:51:53;;;;;;;23.75;22.45;;;;;;;;;;5049944;28;20406;-51
2022/04/29 09:54:22;;;;;;;15.73;14.82;;;;;;;;;;5054948;28;20414;-54
2022/04/29 09:57:05;;;;;;;20.15;18.83;;;;;;;;;;5055066;28;20039;-54
2022/04/29 09:59:36;;;;;;;18.88;17.77;;;;;;;;;;5055349;28;20033;-54
2022/04/29 10:02:03;;;;;;;18.95;17.88;;;;;;;;;;5057194;28;20663;-54
2022/04/29 10:04:30;;;;;;;20.23;19.02;;;;;;;;;;5055109;28;20049;-51
2022/04/29 10:06:56;;;;;;;16.60;15.60;;;;;;;;;;5056704;28;20457;-52
2022/04/29 10:09:27;;;;;;;20.13;19.02;;;;;;;;;;5069966;28;20036;-54
2022/04/29 10:11:53;;;;;;;22.25;21.05;;;;;;;;;;5057121;28;20059;-54
2022/04/29 10:14:21;;;;;;;18.67;17.60;;;;;;;;;;5055585;28;20044;-54
2022/04/29 10:21:15;;;;;;;21.77;20.58;;;;;;;;;;5054538;28;20580;-54
2022/04/29 10:22:22;;;;;;;26.80;25.35;;;;;;;;;;5052223;28;20568;-52
2022/04/29 10:24:47;;;;;;;22.58;21.20;;;;;;;;;;5055188;28;20112;-54
2022/04/29 10:27:13;;;;;;;20.35;19.25;;;;;;;;;;5053928;28;20520;-53
2022/04/29 10:29:39;;;;;;;24.63;23.30;;;;;;;;;;5053030;28;20539;-53
2022/04/29 10:32:09;;;;;;;24.20;22.90;;;;;;;;;;5064075;28;20043;-52
2022/04/29 10:34:35;;;;;;;27.77;26.30;;;;;;;;;;5054544;28;20037;-51
2022/04/29 10:37:02;;;;;;;27.90;26.40;;;;;;;;;;5062817;28;20554;-53
2022/04/29 10:39:27;;;;;;;23.33;22.02;;;;;;;;;;5056908;28;20124;-54
2022/04/29 10:42:00;;;;;;;16.55;15.55;;;;;;;;;;5056101;28;20116;-54
2022/04/29 10:44:25;;;;;;;17.33;16.33;;;;;;;;;;5054256;28;20032;-54
2022/04/29 10:46:51;;;;;;;23.52;22.20;;;;;;;;;;5052156;28;20035;-52
2022/04/29 10:49:20;;;;;;;25.00;23.50;;;;;;;;;;5052184;28;20040;-52
2022/04/29 10:51:54;;;;;;;21.38;20.17;;;;;;;;;;5057175;28;20404;-51
2022/04/29 10:54:34;;;;;;;18.30;17.27;;;;;;;;;;5055005;28;20441;-51
2022/04/29 10:57:06;;;;;;;25.60;24.20;;;;;;;;;;5056660;28;20089;-51
2022/04/29 10:59:50;;;;;;;21.30;20.10;;;;;;;;;;5051347;28;20520;-52
2022/04/29 11:02:34;;;;;;;25.45;24.05;;;;;;;;;;5055881;28;20087;-52
2022/04/29 11:05:00;;;;;;;16.55;15.55;;;;;;;;;;5054812;28;20043;-53
2022/04/29 11:07:36;;;;;;;18.83;17.83;;;;;;;;;;5055029;28;20029;-54
2022/04/29 11:10:05;;;;;;;28.85;27.35;;;;;;;;;;5055418;28;20039;-51
2022/04/29 11:12:33;;;;;;;17.05;16.13;;;;;;;;;;5056164;28;20036;-52
2022/04/29 11:15:16;;;;;;;48.28;45.83;;;;;;;;;;5057742;28;20032;-50
2022/04/29 11:17:43;;;;;;;43.13;40.88;;;;;;;;;;5056111;28;20121;-50
2022/04/29 11:20:19;;;;;;;27.67;26.23;;;;;;;;;;5055808;28;20044;-52
2022/04/29 11:25:58;;;;;;;30.77;29.15;;;;;;;;;;5055894;28;20470;-54
2022/04/29 11:28:25;;;;;;;37.85;35.88;;;;;;;;;;5056309;28;20470;-52
2022/04/29 11:30:59;;;;;;;48.65;46.15;;;;;;;;;;5055478;28;20039;-52
2022/04/29 11:33:25;;;;;;;32.47;30.77;;;;;;;;;;5051386;28;20386;-54
2022/04/29 11:36:05;;;;;;;36.53;34.63;;;;;;;;;;5055012;28;20047;-50
2022/04/29 11:38:38;;;;;;;30.70;29.10;;;;;;;;;;5053495;28;20072;-53
2022/04/29 11:41:04;;;;;;;24.95;23.60;;;;;;;;;;5055210;28;20036;-54
2022/04/29 11:43:30;;;;;;;44.10;41.80;;;;;;;;;;5056562;28;20156;-53
2022/04/29 11:46:00;;;;;;;39.45;37.42;;;;;;;;;;5053288;28;20085;-53
2022/04/29 11:48:26;;;;;;;;;;;;;;;;;;5053148;28;20458;-53
2022/04/29 11:50:51;;;;;;;31.05;29.42;;;;;;;;;;5057028;28;19919;-52
2022/04/29 11:53:17;;;;;;;37.97;36.03;;;;;;;;;;5054595;28;20040;-54
2022/04/29 11:55:50;;;;;;;40.55;38.45;;;;;;;;;;5053650;28;20454;-52
2022/04/29 11:58:16;;;;;;;32.65;30.95;;;;;;;;;;5054488;28;20672;-52
2022/04/29 12:00:49;;;;;;;32.60;30.90;;;;;;;;;;5053920;28;20112;-54
2022/04/29 12:03:19;;;;;;;19.33;18.25;;;;;;;;;;5052863;28;20043;-52
2022/04/29 12:05:44;;;;;;;31.35;29.73;;;;;;;;;;5052539;28;20036;-59
2022/04/29 12:08:10;;;;;;;41.13;39.03;;;;;;;;;;5052804;28;20044;-59
2022/04/29 12:10:35;;;;;;;29.48;27.92;;;;;;;;;;5052911;28;20033;-59
2022/04/29 12:13:05;;;;;;;29.58;28.02;;;;;;;;;;5053685;28;20068;-59
2022/04/29 12:15:35;;;;;;;35.45;33.65;;;;;;;;;;5052549;28;20025;-59
2022/04/29 12:18:09;;;;;;;25.10;23.77;;;;;;;;;;5051756;28;20032;-59
2022/04/29 12:20:37;;;;;;;15.30;14.45;;;;;;;;;;5052453;28;20037;-59
2022/04/29 12:23:10;;;;;;;14.88;14.02;;;;;;;;;;5051228;28;20107;-59
2022/04/29 12:25:38;;;;;;;15.55;14.65;;;;;;;;;;5054661;28;20093;-59
2022/04/29 12:28:26;;;;;;;15.95;15.05;;;;;;;;;;5051472;28;20025;-59
2022/04/29 12:36:31;;;;;;;44.15;41.85;;;;;;;;;;5050556;28;20283;-60
2022/04/29 12:39:05;;;;;;;23.10;21.80;;;;;;;;;;5053807;28;20029;-59
2022/04/29 12:41:31;;;;;;;18.65;17.60;;;;;;;;;;5056967;28;20029;-60
2022/04/29 12:44:11;;;;;;;17.33;16.38;;;;;;;;;;5056083;28;20109;-59
2022/04/29 12:46:36;;;;;;;16.33;15.43;;;;;;;;;;5054171;28;20036;-59
2022/04/29 12:49:02;;;;;;;21.42;20.27;;;;;;;;;;5052519;28;20456;-59
2022/04/29 12:51:34;;;;;;;22.73;21.48;;;;;;;;;;5057048;28;20086;-60
2022/04/29 12:54:01;;;;;;;21.00;19.88;;;;;;;;;;5058562;28;20025;-59
2022/04/29 12:56:30;;;;;;;19.02;17.98;;;;;;;;;;5054294;28;20109;-58
2022/04/29 12:58:57;;;;;;;25.67;24.33;;;;;;;;;;5056386;28;20442;-59
2022/04/29 13:01:24;;;;;;;22.75;21.52;;;;;;;;;;5054393;28;20721;-59
2022/04/29 13:03:54;;;;;;;25.17;23.83;;;;;;;;;;5056312;28;20070;-59
2022/04/29 13:06:24;;;;;;;25.15;23.80;;;;;;;;;;5055522;28;20040;-60
2022/04/29 13:08:54;;;;;;;26.60;25.17;;;;;;;;;;5075047;28;20112;-60
2022/04/29 13:11:20;;;;;;;29.92;28.35;;;;;;;;;;5054686;28;20414;-53
2022/04/29 13:13:46;;;;;;;31.08;29.45;;;;;;;;;;5056367;28;20033;-60
2022/04/29 13:16:12;;;;;;;30.80;29.13;;;;;;;;;;5057939;28;20167;-56
2022/04/29 13:18:37;;;;;;;31.52;29.88;;;;;;;;;;5058479;28;20100;-55
2022/04/29 13:21:09;;;;;;;28.98;27.45;;;;;;;;;;5057272;28;20045;-55
2022/04/29 13:23:36;;;;;;;33.03;31.30;;;;;;;;;;5060170;28;20071;-56
2022/04/29 13:26:02;;;;;;;30.48;28.88;;;;;;;;;;5055305;28;20016;-55
2022/04/29 13:28:29;;;;;;;31.08;29.48;;;;;;;;;;5054389;28;20064;-56
2022/04/29 13:30:54;;;;;;;34.03;32.22;;;;;;;;;;5056606;28;20032;-54
2022/04/29 13:33:20;;;;;;;30.33;28.73;;;;;;;;;;5061138;28;20028;-52
2022/04/29 13:35:45;;;;;;;32.35;30.65;;;;;;;;;;5056196;28;20120;-54
2022/04/29 13:38:11;;;;;;;33.08;31.38;;;;;;;;;;5057746;28;20525;-60
2022/04/29 13:40:37;;;;;;;27.17;25.67;;;;;;;;;;5063492;28;20029;-60
2022/04/29 13:43:04;;;;;;;30.35;28.75;;;;;;;;;;5058459;28;20409;-60
2022/04/29 13:45:29;;;;;;;32.22;30.55;;;;;;;;;;5054775;28;20064;-60
2022/04/29 13:47:55;;;;;;;26.52;25.13;;;;;;;;;;5053700;28;20056;-55
2022/04/29 13:50:21;;;;;;;28.15;26.67;;;;;;;;;;5055377;28;20533;-53
2022/04/29 13:55:30;;;;;;;30.83;29.20;;;;;;;;;;5058023;28;20035;-54
2022/04/29 13:57:56;;;;;;;28.73;27.25;;;;;;;;;;5054232;28;20020;-55
2022/04/29 14:00:22;;;;;;;31.08;29.45;;;;;;;;;;5054272;28;20043;-54
2022/04/29 14:02:48;;;;;;;26.98;25.50;;;;;;;;;;5052415;28;20086;-55
2022/04/29 14:05:14;;;;;;;26.90;25.48;;;;;;;;;;5055910;28;20045;-53
2022/04/29 14:07:40;;;;;;;28.95;27.25;;;;;;;;;;5059666;28;20037;-51
2022/04/29 14:10:07;;;;;;;29.40;27.88;;;;;;;;;;5050816;28;20108;-53
2022/04/29 14:12:37;;;;;;;24.50;23.13;;;;;;;;;;5052972;28;20036;-52
2022/04/29 14:15:03;;;;;;;16.23;15.32;;;;;;;;;;5052373;28;20033;-53
2022/04/29 14:17:29;;;;;;;20.90;19.77;;;;;;;;;;5058841;28;20131;-55
2022/04/29 14:19:55;;;;;;;16.90;15.88;;;;;;;;;;5055466;28;20124;-54
2022/04/29 14:22:20;;;;;;;18.92;17.90;;;;;;;;;;5053068;28;20415;-54
2022/04/29 14:24:45;;;;;;;16.50;15.60;;;;;;;;;;5052556;28;20098;-54
2022/04/29 14:27:12;;;;;;;16.45;15.45;;;;;;;;;;5055615;28;20033;-55
2022/04/29 14:29:38;;;;;;;15.70;14.80;;;;;;;;;;5054928;28;20085;-54
2022/04/29 14:32:04;;;;;;;17.45;16.45;;;;;;;;;;5053527;28;20652;-54
2022/04/29 14:34:31;;;;;;;15.77;14.88;;;;;;;;;;5052298;28;20041;-54
2022/04/29 14:36:57;;;;;;;17.60;16.60;;;;;;;;;;5052626;28;20505;-55
2022/04/29 14:39:23;;;;;;;18.63;17.63;;;;;;;;;;5052136;28;20032;-53
2022/04/29 14:41:48;;;;;;;20.35;19.15;;;;;;;;;;5052159;28;20544;-54
2022/04/29 14:44:14;;;;;;;19.77;18.67;;;;;;;;;;5053051;28;20062;-54
2022/04/29 14:46:41;;;;;;;21.90;20.70;;;;;;;;;;5053772;28;20036;-54
2022/04/29 14:49:07;;;;;;;17.33;16.35;;;;;;;;;;5052883;28;20033;-54
2022/04/29 14:51:32;;;;;;;16.00;15.07;;;;;;;;;;5052775;28;20036;-55
2022/04/29 14:53:58;;;;;;;20.85;19.70;;;;;;;;;;5053735;28;20086;-54
2022/04/29 14:56:24;;;;;;;22.38;21.10;;;;;;;;;;5055680;28;20072;-54
2022/04/29 14:58:50;;;;;;;26.25;24.88;;;;;;;;;;5057303;28;20024;-52
2022/04/29 15:01:17;;;;;;;27.13;25.60;;;;;;;;;;5061445;28;20071;-50